createdAt,value
2017-09-13T00:02:33.068Z,13.41
2017-09-13T00:12:33.144Z,13.47
2017-09-13T00:22:33.118Z,13.4
2017-09-13T00:32:33.064Z,13.38
2017-09-13T00:42:33.137Z,13.44
2017-09-13T00:52:33.118Z,13.58
2017-09-13T01:02:33.089Z,13.69
2017-09-13T01:12:33.121Z,13.73
2017-09-13T01:22:33.095Z,13.69
2017-09-13T01:32:33.750Z,13.67
2017-09-13T01:42:33.117Z,13.76
2017-09-13T01:52:33.043Z,13.83
2017-09-13T02:02:33.120Z,13.89
2017-09-13T02:12:33.083Z,13.74
2017-09-13T02:22:33.070Z,13.61
2017-09-13T02:32:33.134Z,13.43
2017-09-13T02:42:33.074Z,13.29
2017-09-13T02:52:33.175Z,13.14
2017-09-13T03:02:33.094Z,13.09
2017-09-13T03:12:33.046Z,12.96
2017-09-13T03:22:33.116Z,12.95
2017-09-13T03:32:33.137Z,12.92
2017-09-13T03:42:33.083Z,12.78
2017-09-13T03:52:33.095Z,12.87
2017-09-13T04:02:33.064Z,12.79
2017-09-13T04:12:33.131Z,12.85
2017-09-13T04:22:33.085Z,12.79
2017-09-13T04:32:33.055Z,12.7
2017-09-13T04:42:33.125Z,12.81
2017-09-13T04:52:33.092Z,12.75
2017-09-13T05:02:33.047Z,12.85
2017-09-13T05:12:33.111Z,12.87
2017-09-13T05:22:33.074Z,12.96
2017-09-13T05:32:33.111Z,13
2017-09-13T05:42:33.081Z,13.17
2017-09-13T05:52:33.062Z,13.2
2017-09-13T06:02:33.115Z,13.18
2017-09-13T06:12:33.061Z,13.33
2017-09-13T06:22:33.048Z,13.8
2017-09-13T06:32:33.104Z,13.8
2017-09-13T06:42:33.053Z,13.89
2017-09-13T06:52:33.136Z,14.02
2017-09-13T07:02:33.048Z,14.6
2017-09-13T07:12:33.038Z,15.19
2017-09-13T07:22:33.015Z,15.86
2017-09-13T07:32:33.001Z,16.44
2017-09-13T07:42:33.023Z,16.41
2017-09-13T07:52:33.112Z,16.5
2017-09-13T08:02:33.013Z,16.22
2017-09-13T08:12:33.055Z,16.59
2017-09-13T08:22:33.043Z,16.73
2017-09-13T08:32:33.055Z,16.78
2017-09-13T08:42:33.046Z,17.55
2017-09-13T08:52:33.034Z,17.7
2017-09-13T09:02:33.048Z,17.36
2017-09-13T09:12:33.007Z,17.38
2017-09-13T09:22:33.033Z,15.6
2017-09-13T09:32:33.017Z,14.78
2017-09-13T09:42:33.026Z,15.23
2017-09-13T09:52:33.025Z,15.56
2017-09-13T10:02:33.042Z,15.23
2017-09-13T10:12:33.028Z,15.88
2017-09-13T10:22:33.038Z,16.74
2017-09-13T10:32:33.060Z,17.08
2017-09-13T10:42:33.039Z,18.22
2017-09-13T10:52:33.052Z,18.58
2017-09-13T11:02:33.049Z,18.43
2017-09-13T11:12:33.029Z,18.97
2017-09-13T11:22:33.062Z,18.76
2017-09-13T11:32:33.071Z,19.29
2017-09-13T11:42:33.037Z,19.14
2017-09-13T11:52:33.040Z,18.86
2017-09-13T12:02:33.058Z,19.02
2017-09-13T12:12:33.123Z,18.79
2017-09-13T12:22:33.161Z,18.82
2017-09-13T12:32:33.126Z,19.54
2017-09-13T12:42:33.088Z,19.35
2017-09-13T12:52:33.154Z,19.47
2017-09-13T13:02:34.173Z,18.94
2017-09-13T13:12:33.131Z,18.8
2017-09-13T13:22:33.107Z,18.83
2017-09-13T13:32:33.110Z,18.98
2017-09-13T13:42:33.330Z,18.98
2017-09-13T13:52:33.162Z,18.94
2017-09-13T14:02:33.070Z,18.77
2017-09-13T14:12:33.167Z,18.86
2017-09-13T14:22:33.097Z,19.35
2017-09-13T14:32:33.250Z,19.28
2017-09-13T14:42:33.207Z,19.13
2017-09-13T14:52:33.091Z,18.84
2017-09-13T15:02:33.297Z,18.65
2017-09-13T15:12:33.055Z,18.68
2017-09-13T15:22:33.052Z,18.36
2017-09-13T15:32:33.108Z,18.03
2017-09-13T15:42:33.103Z,17.71
2017-09-13T15:52:33.090Z,17.71
2017-09-13T16:02:33.071Z,17.57
2017-09-13T16:12:33.067Z,17.36
2017-09-13T16:22:33.064Z,17.23
2017-09-13T16:32:33.043Z,17.14
2017-09-13T16:42:33.051Z,16.92
2017-09-13T16:52:33.073Z,16.73
2017-09-13T17:02:33.128Z,16.73
2017-09-13T17:12:33.059Z,16.5
2017-09-13T17:22:33.084Z,16.34
2017-09-13T17:32:33.168Z,16.16
2017-09-13T17:42:33.101Z,15.52
2017-09-13T17:52:33.077Z,15.2
2017-09-13T18:02:33.104Z,14.67
2017-09-13T18:12:33.122Z,14.14
2017-09-13T18:22:33.118Z,14.01
2017-09-13T18:32:33.102Z,13.55
2017-09-13T18:42:33.111Z,13.3
2017-09-13T18:52:33.071Z,13.09
2017-09-13T19:02:34.191Z,12.88
2017-09-13T19:12:33.065Z,12.51
2017-09-13T19:22:33.056Z,12.49
2017-09-13T19:32:33.083Z,12.7
2017-09-13T19:42:33.146Z,12.57
2017-09-13T19:52:36.407Z,12.77
2017-09-13T20:02:33.158Z,12.79
2017-09-13T20:12:38.068Z,12.79
2017-09-13T20:22:33.115Z,12.74
2017-09-13T20:32:33.065Z,13.02
2017-09-13T20:42:33.284Z,13.04
2017-09-13T20:52:33.164Z,13.06
2017-09-13T21:02:33.292Z,12.92
2017-09-13T21:12:33.175Z,13.02
2017-09-13T21:22:34.199Z,12.96
2017-09-13T21:32:33.807Z,12.97
2017-09-13T21:42:33.310Z,13.04
2017-09-13T21:52:33.533Z,13.06
2017-09-13T22:02:35.306Z,13.18
2017-09-13T22:12:33.764Z,13.17
2017-09-13T22:22:33.438Z,13.11
2017-09-13T22:32:33.742Z,13.03
2017-09-13T22:42:33.161Z,12.92
2017-09-13T22:52:33.435Z,13.02
2017-09-13T23:02:33.320Z,12.89
2017-09-13T23:12:33.162Z,13.03
2017-09-13T23:22:33.101Z,12.78
2017-09-13T23:32:33.135Z,12.63
2017-09-13T23:42:33.057Z,12.41
2017-09-13T23:52:33.161Z,12.23
